This is the latest recevied weather packets stored in our database for station/object N5UKZ-WX. If no packets are shown the sender has not sent any weather packets the latest 10 day(s).
| Time | Temp. | Humidity | Pressure | Rain* | Wind** | Luminosity | Snow |
|---|---|---|---|---|---|---|---|
| 1777909917 | 23.89° C | 65% | 1018 hPa | 0 mm | - | - | - |
| 1777909017 | 22.22° C | 69% | 1018 hPa | 0 mm | - | - | - |
| 1777908117 | 22.22° C | 73% | 1018.3 hPa | 0 mm | - | - | - |
| 1777907217 | 21.11° C | 76% | 1018.3 hPa | 0 mm | - | - | - |
| 1777906317 | 20.56° C | 79% | 1018.3 hPa | 0 mm | - | - | - |
| 1777905417 | 19.44° C | 82% | 1018.3 hPa | 0 mm | - | - | - |
| 1777904517 | 18.33° C | 86% | 1018 hPa | 0 mm | - | - | - |
| 1777903616 | 17.78° C | 89% | 1018.3 hPa | 0 mm | - | - | - |
| 1777902716 | 17.22° C | 91% | 1018.3 hPa | 0 mm | - | - | - |
| 1777901816 | 16.11° C | 95% | 1018.3 hPa | 0 mm | - | - | - |
| 1777900916 | 15° C | 96% | 1018.3 hPa | 0 mm | - | - | - |
| 1777900016 | 13.89° C | 96% | 1018.3 hPa | 0 mm | - | - | - |
| 1777899116 | 13.89° C | 96% | 1018.3 hPa | 0 mm | - | - | - |
| 1777898215 | 12.78° C | 96% | 1018.3 hPa | 0 mm | - | - | - |
| 1777897315 | 13.33° C | 96% | 1018 hPa | 0 mm | - | - | - |
| 1777896415 | 13.33° C | 96% | 1018 hPa | 0 mm | - | - | - |
| 1777895515 | 12.22° C | 96% | 1018 hPa | 0 mm | - | - | - |
| 1777894615 | 12.78° C | 96% | 1017.7 hPa | 0 mm | - | - | - |
| 1777893714 | 12.78° C | 95% | 1017.7 hPa | 0 mm | - | - | - |
| 1777892814 | 12.78° C | 95% | 1017.7 hPa | 0 mm | - | - | - |
| 1777891914 | 13.33° C | 95% | 1017.3 hPa | 0 mm | - | - | - |
| 1777891014 | 12.78° C | 95% | 1017.7 hPa | 0 mm | - | - | - |
| 1777890114 | 13.33° C | 94% | 1017.3 hPa | 0 mm | - | - | - |
| 1777889213 | 13.33° C | 94% | 1017.3 hPa | 0 mm | - | - | - |
| 1777888313 | 13.89° C | 93% | 1017.7 hPa | 0 mm | - | - | - |
* Rain latest hour (hover to see other rain measurements)
** Current wind speed in m/s (hover to see current wind gust speed)